Time;durP1;ratioP1;P1;durP2;ratioP2;P2;SDS_P1;SDS_P2;PMS_P1;PMS_P2;Temp;Humidity;BMP_temperature;BMP_pressure;BME280_temperature;BME280_humidity;BME280_pressure;Samples;Min_cycle;Max_cycle;Signal;HPM_P1;HPM_P2
2024/01/04 00:00:38;;;;;;;1.10;1.10;;;;;;;4.02;100.00;98787.81;5093112;28;20222;-67
2024/01/04 00:03:05;;;;;;;0.70;0.70;;;;;;;3.91;100.00;98782.03;5092898;28;20625;-67
2024/01/04 00:05:32;;;;;;;1.37;1.37;;;;;;;4.04;100.00;98786.09;5093448;28;20256;-67
2024/01/04 00:08:00;;;;;;;0.90;0.90;;;;;;;4.07;100.00;98788.56;5094636;28;20207;-67
2024/01/04 00:10:27;;;;;;;0.80;0.80;;;;;;;4.12;100.00;98791.91;5097028;28;20205;-67
2024/01/04 00:12:53;;;;;;;0.93;0.93;;;;;;;4.14;100.00;98795.25;5093761;28;20633;-67
2024/01/04 00:15:20;;;;;;;0.67;0.67;;;;;;;4.17;100.00;98785.06;5097160;28;20259;-67
2024/01/04 00:17:47;;;;;;;1.23;1.23;;;;;;;4.23;100.00;98777.34;5099229;28;20203;-66
2024/01/04 00:20:14;;;;;;;0.90;0.90;;;;;;;4.20;100.00;98791.81;5098342;28;20199;-67
2024/01/04 00:22:40;;;;;;;0.93;0.93;;;;;;;4.17;100.00;98785.06;5093424;28;20191;-67
2024/01/04 00:25:09;;;;;;;1.03;1.03;;;;;;;3.99;100.00;98785.31;5109871;28;20206;-67
2024/01/04 00:27:36;;;;;;;1.73;1.73;;;;;;;3.97;100.00;98801.44;5113421;28;20643;-67
2024/01/04 00:30:03;;;;;;;1.17;1.10;;;;;;;3.88;100.00;98789.69;5102481;28;20203;-67
2024/01/04 00:32:30;;;;;;;0.90;0.90;;;;;;;3.76;100.00;98779.72;5108154;28;20252;-67
2024/01/04 00:34:56;;;;;;;0.90;0.90;;;;;;;3.86;100.00;98795.66;5104339;28;20198;-67
2024/01/04 00:37:23;;;;;;;0.60;0.60;;;;;;;3.78;100.00;98782.25;5112902;28;20202;-67
2024/01/04 00:39:50;;;;;;;0.90;0.90;;;;;;;3.72;100.00;98792.47;5101272;28;20271;-67
2024/01/04 00:42:18;;;;;;;0.90;0.90;;;;;;;3.73;100.00;98800.03;5096691;28;20208;-66
2024/01/04 00:44:45;;;;;;;0.90;0.90;;;;;;;3.49;100.00;98778.34;5095542;28;20244;-66
2024/01/04 00:47:12;;;;;;;1.23;1.23;;;;;;;3.42;100.00;98806.34;5098632;28;20659;-67
2024/01/04 00:49:38;;;;;;;1.27;1.27;;;;;;;3.46;100.00;98792.75;5099204;28;20194;-66
2024/01/04 00:52:05;;;;;;;0.90;0.90;;;;;;;3.33;100.00;98798.84;5096312;27;20237;-67
2024/01/04 00:54:32;;;;;;;0.60;0.60;;;;;;;3.44;100.00;98794.47;5092295;28;20587;-67
2024/01/04 00:56:59;;;;;;;0.90;0.90;;;;;;;3.55;100.00;98777.47;5092644;28;20632;-67
2024/01/04 00:59:27;;;;;;;0.60;0.60;;;;;;;3.53;100.00;98794.34;5091670;28;20199;-67
2024/01/04 01:01:54;;;;;;;1.10;1.10;;;;;;;3.55;100.00;98805.34;5091114;28;20237;-67
2024/01/04 01:04:20;;;;;;;0.97;0.97;;;;;;;3.51;100.00;98801.16;5092223;28;20647;-67
2024/01/04 01:06:47;;;;;;;3.60;1.63;;;;;;;3.29;100.00;98779.44;5092160;28;20203;-67
2024/01/04 01:09:14;;;;;;;1.20;1.20;;;;;;;3.41;100.00;98814.78;5091975;28;20199;-67
2024/01/04 01:11:41;;;;;;;1.07;1.07;;;;;;;3.39;100.00;98793.69;5092030;28;20226;-67
2024/01/04 01:14:07;;;;;;;1.33;1.33;;;;;;;3.42;100.00;98788.59;5091938;28;20663;-67
2024/01/04 01:16:36;;;;;;;1.87;1.87;;;;;;;3.40;100.00;98790.28;5087395;28;20204;-67
2024/01/04 01:19:03;;;;;;;0.63;0.63;;;;;;;3.45;100.00;98798.69;5090617;28;20199;-67
2024/01/04 01:21:29;;;;;;;1.17;1.17;;;;;;;3.50;100.00;98791.88;5091549;28;20215;-66
2024/01/04 01:23:56;;;;;;;0.90;0.90;;;;;;;3.49;100.00;98785.94;5091564;28;21742;-67
2024/01/04 01:26:23;;;;;;;1.17;1.17;;;;;;;3.51;100.00;98778.34;5106722;28;20277;-67
2024/01/04 01:28:50;;;;;;;1.30;1.30;;;;;;;3.56;100.00;98784.19;5103017;28;20738;-67
2024/01/04 01:31:16;;;;;;;0.73;0.73;;;;;;;3.57;100.00;98780.81;5091694;28;20343;-67
2024/01/04 01:33:45;;;;;;;1.23;1.07;;;;;;;3.60;100.00;98775.69;5106994;28;20194;-67
2024/01/04 01:36:12;;;;;;;0.70;0.70;;;;;;;3.45;100.00;98753.09;5106431;28;20191;-67
2024/01/04 01:38:39;;;;;;;0.70;0.70;;;;;;;3.60;100.00;98783.28;5091048;28;20210;-67
2024/01/04 01:41:06;;;;;;;1.60;1.13;;;;;;;3.55;100.00;98765.63;5090837;28;20284;-66
2024/01/04 01:43:33;;;;;;;0.87;0.87;;;;;;;3.41;100.00;98771.72;5091494;28;20195;-66
2024/01/04 01:45:59;;;;;;;0.63;0.63;;;;;;;3.49;100.00;98798.63;5091274;28;20199;-67
2024/01/04 01:48:26;;;;;;;1.03;1.03;;;;;;;3.35;100.00;98776.84;5090589;28;20196;-67
2024/01/04 01:50:54;;;;;;;0.60;0.60;;;;;;;3.55;100.00;98796.03;5106908;28;20199;-67
2024/01/04 01:53:22;;;;;;;0.60;0.60;;;;;;;3.57;100.00;98793.47;5104436;28;20203;-67
2024/01/04 01:55:49;;;;;;;0.87;0.87;;;;;;;3.60;100.00;98788.38;5091120;28;20199;-67
2024/01/04 01:58:16;;;;;;;0.87;0.87;;;;;;;3.58;100.00;98779.97;5090877;28;20203;-67
2024/01/04 02:00:43;;;;;;;1.10;1.10;;;;;;;3.60;100.00;98768.09;5091056;28;20280;-67
2024/01/04 02:03:10;;;;;;;1.03;1.03;;;;;;;3.53;100.00;98748.75;5095654;28;20191;-67
2024/01/04 02:05:37;;;;;;;0.90;0.90;;;;;;;3.61;100.00;98755.41;5090961;28;20191;-66
2024/01/04 02:08:06;;;;;;;2.20;2.10;;;;;;;3.57;100.00;98763.91;5094505;28;20199;-67
2024/01/04 02:10:33;;;;;;;0.90;0.90;;;;;;;3.57;100.00;98760.53;5102761;28;20202;-67
2024/01/04 02:13:00;;;;;;;1.07;1.07;;;;;;;3.55;100.00;98754.66;5106049;28;20666;-66
2024/01/04 02:15:26;;;;;;;0.83;0.83;;;;;;;3.51;100.00;98760.63;5089676;28;20637;-67
2024/01/04 02:17:53;;;;;;;0.70;0.70;;;;;;;3.53;100.00;98766.50;5090829;28;21135;-67
2024/01/04 02:20:20;;;;;;;4.57;1.33;;;;;;;3.54;100.00;98768.16;5097388;28;20630;-67
2024/01/04 02:22:51;;;;;;;0.70;0.70;;;;;;;3.52;100.00;98772.44;5101105;28;20222;-67
2024/01/04 02:25:18;;;;;;;1.30;1.30;;;;;;;3.44;100.00;98777.59;5098586;28;20654;-67
2024/01/04 02:27:45;;;;;;;0.70;0.70;;;;;;;3.13;100.00;98782.13;5095391;28;20198;-66
2024/01/04 02:30:12;;;;;;;1.17;1.17;;;;;;;3.02;100.00;98789.00;5097863;28;20248;-67
2024/01/04 02:32:39;;;;;;;0.87;0.87;;;;;;;2.97;100.00;98795.78;5110194;28;20195;-67
2024/01/04 02:35:06;;;;;;;1.10;1.00;;;;;;;2.87;100.00;98789.16;5088868;28;20656;-67
2024/01/04 02:37:33;;;;;;;0.87;0.87;;;;;;;2.69;100.00;98806.19;5101345;28;20207;-66
2024/01/04 02:40:01;;;;;;;0.90;0.90;;;;;;;2.61;100.00;98818.91;5091949;28;20249;-66
2024/01/04 02:42:29;;;;;;;0.80;0.80;;;;;;;2.58;100.00;98811.34;5090437;28;20215;-66
2024/01/04 02:44:56;;;;;;;1.17;1.17;;;;;;;2.54;100.00;98825.72;5090581;28;20196;-67
2024/01/04 02:47:22;;;;;;;0.53;0.53;;;;;;;2.49;100.00;98826.56;5107616;28;20258;-67
2024/01/04 02:49:49;;;;;;;0.83;0.83;;;;;;;2.48;100.00;98815.63;5090306;28;20204;-67
2024/01/04 02:52:16;;;;;;;0.80;0.80;;;;;;;2.46;100.00;98814.78;5090164;28;20219;-66
2024/01/04 02:54:42;;;;;;;1.27;1.27;;;;;;;2.50;100.00;98813.06;5090270;28;20199;-67
2024/01/04 02:57:10;;;;;;;1.60;1.60;;;;;;;2.49;100.00;98811.38;5090857;28;20252;-66
2024/01/04 02:59:37;;;;;;;0.60;0.60;;;;;;;2.49;100.00;98813.91;5090264;28;20659;-66
2024/01/04 03:02:04;;;;;;;0.90;0.90;;;;;;;2.49;100.00;98812.25;5094524;28;20767;-66
2024/01/04 03:04:31;;;;;;;0.93;0.93;;;;;;;2.49;100.00;98806.34;5094024;28;20659;-66
2024/01/04 03:06:57;;;;;;;3.73;1.23;;;;;;;2.35;100.00;98808.13;5094609;28;20572;-66
2024/01/04 03:09:24;;;;;;;0.90;0.90;;;;;;;2.30;100.00;98804.78;5097521;28;20195;-66
2024/01/04 03:11:51;;;;;;;0.93;0.93;;;;;;;2.21;100.00;98814.97;5094620;28;20192;-66
2024/01/04 03:14:19;;;;;;;1.17;1.17;;;;;;;2.24;100.00;98810.72;5096012;28;20195;-66
2024/01/04 03:16:45;;;;;;;1.53;1.53;;;;;;;2.29;100.00;98813.25;5094112;28;20199;-66
2024/01/04 03:19:12;;;;;;;2.87;2.80;;;;;;;2.25;100.00;98821.69;5093925;28;20621;-66
2024/01/04 03:21:39;;;;;;;0.93;0.93;;;;;;;2.29;100.00;98803.13;5094206;28;20222;-66
2024/01/04 03:24:06;;;;;;;1.03;1.03;;;;;;;2.29;100.00;98808.19;5093909;28;20203;-66
2024/01/04 03:26:33;;;;;;;0.87;0.87;;;;;;;2.28;100.00;98798.91;5094850;28;20571;-66
2024/01/04 03:28:59;;;;;;;0.80;0.80;;;;;;;2.36;100.00;98779.47;5104207;28;20649;-66
2024/01/04 03:31:27;;;;;;;0.90;0.90;;;;;;;2.34;100.00;98778.63;5093931;28;20292;-66
2024/01/04 03:33:55;;;;;;;1.00;1.00;;;;;;;2.42;100.00;98775.22;5105203;28;20659;-66
2024/01/04 03:36:21;;;;;;;0.80;0.80;;;;;;;2.45;100.00;98774.34;5110126;28;20191;-66
2024/01/04 03:38:48;;;;;;;0.70;0.70;;;;;;;2.50;100.00;98775.97;5093325;28;20231;-66
2024/01/04 03:41:15;;;;;;;0.80;0.80;;;;;;;2.41;100.00;98752.44;5094056;28;20683;-66
2024/01/04 03:43:41;;;;;;;0.57;0.57;;;;;;;2.50;100.00;98782.72;5093532;28;20665;-66
2024/01/04 03:46:10;;;;;;;0.60;0.60;;;;;;;2.45;100.00;98770.13;5093547;28;20195;-66
2024/01/04 03:48:38;;;;;;;0.73;0.73;;;;;;;2.50;100.00;98777.66;5093477;28;20241;-66
2024/01/04 03:51:05;;;;;;;0.70;0.70;;;;;;;2.45;100.00;98779.41;5092411;28;20203;-66
2024/01/04 03:53:31;;;;;;;1.23;1.17;;;;;;;2.41;100.00;98785.34;5101095;28;20670;-66
2024/01/04 03:55:58;;;;;;;1.10;1.10;;;;;;;2.46;100.00;98781.06;5103707;28;20272;-66
2024/01/04 03:58:25;;;;;;;0.70;0.70;;;;;;;2.51;100.00;98779.34;5110312;28;20203;-66
2024/01/04 04:00:51;;;;;;;21.83;12.07;;;;;;;2.52;100.00;98775.97;5102922;28;20203;-66
2024/01/04 04:03:19;;;;;;;28.73;16.27;;;;;;;2.40;100.00;98776.91;5108703;28;20276;-66
2024/01/04 04:05:47;;;;;;;5.00;4.67;;;;;;;2.47;100.00;98777.69;5101882;28;20199;-66
2024/01/04 04:08:14;;;;;;;11.40;9.23;;;;;;;2.28;100.00;98753.41;5092737;28;20660;-66
2024/01/04 04:10:41;;;;;;;10.00;9.13;;;;;;;2.31;100.00;98788.78;5104591;28;20252;-66
2024/01/04 04:13:08;;;;;;;1.60;1.37;;;;;;;2.32;100.00;98777.81;5103383;28;20745;-66
2024/01/04 04:15:34;;;;;;;0.90;0.90;;;;;;;2.35;100.00;98765.16;5113527;28;20247;-66
2024/01/04 04:18:01;;;;;;;0.90;0.90;;;;;;;2.37;100.00;98771.03;5096267;28;20244;-66
2024/01/04 04:20:28;;;;;;;1.00;1.00;;;;;;;2.40;100.00;98760.88;5098670;28;20199;-66
2024/01/04 04:22:57;;;;;;;0.73;0.73;;;;;;;2.46;100.00;98746.50;5113496;28;20225;-66
2024/01/04 04:25:23;;;;;;;0.90;0.90;;;;;;;2.48;100.00;98749.03;5104484;28;20282;-66
2024/01/04 04:27:50;;;;;;;0.90;0.90;;;;;;;2.52;100.00;98745.63;5100921;27;20204;-66
2024/01/04 04:30:19;;;;;;;0.70;0.70;;;;;;;2.50;100.00;98743.09;5092992;28;20249;-66
2024/01/04 04:32:45;;;;;;;0.97;0.97;;;;;;;2.50;100.00;98763.34;5093111;28;20227;-66
2024/01/04 04:35:12;;;;;;;0.80;0.80;;;;;;;2.27;100.00;98721.38;5100990;28;20199;-65
2024/01/04 04:37:39;;;;;;;0.67;0.67;;;;;;;2.33;100.00;98736.47;5097702;28;20251;-65
2024/01/04 04:40:09;;;;;;;1.27;1.27;;;;;;;2.26;100.00;98729.81;5089297;28;20284;-65
2024/01/04 04:42:35;;;;;;;1.30;1.20;;;;;;;2.26;100.00;98737.41;5092725;28;20661;-65
2024/01/04 04:45:02;;;;;;;0.70;0.70;;;;;;;2.24;100.00;98750.03;5100737;28;20247;-65
2024/01/04 04:47:29;;;;;;;2.33;2.23;;;;;;;2.26;100.00;98755.09;5112856;28;20650;-65
2024/01/04 04:49:55;;;;;;;0.57;0.57;;;;;;;2.17;100.00;98752.63;5093390;28;20199;-65
2024/01/04 04:52:22;;;;;;;1.90;1.80;;;;;;;2.22;100.00;98750.91;5102349;28;20187;-65
2024/01/04 04:54:49;;;;;;;0.90;0.90;;;;;;;2.22;100.00;98754.28;5103625;28;20652;-66
2024/01/04 04:57:17;;;;;;;0.80;0.80;;;;;;;2.18;100.00;98774.53;5095095;28;20211;-65
2024/01/04 04:59:44;;;;;;;0.70;0.70;;;;;;;2.13;100.00;98748.47;5091921;28;20655;-65
2024/01/04 05:02:11;;;;;;;1.53;1.53;;;;;;;2.11;100.00;98754.34;5098593;28;20221;-66
2024/01/04 05:04:38;;;;;;;1.00;1.00;;;;;;;2.00;100.00;98740.94;5103137;28;20244;-65
2024/01/04 05:07:05;;;;;;;0.80;0.80;;;;;;;2.21;100.00;98774.50;5106597;28;20743;-65
2024/01/04 05:09:31;;;;;;;1.73;1.63;;;;;;;2.20;100.00;98767.78;5103736;28;20250;-65
2024/01/04 05:11:58;;;;;;;0.60;0.60;;;;;;;2.22;100.00;98771.16;5112628;28;20202;-65
2024/01/04 05:14:26;;;;;;;0.93;0.93;;;;;;;2.30;100.00;98767.69;5094709;28;20195;-65
2024/01/04 05:16:54;;;;;;;2.57;2.47;;;;;;;2.29;100.00;98773.63;5092086;28;20249;-65
2024/01/04 05:19:21;;;;;;;0.90;0.90;;;;;;;2.33;100.00;98765.16;5091841;28;20742;-65
2024/01/04 05:21:48;;;;;;;0.93;0.93;;;;;;;2.38;100.00;98765.97;5091485;28;20645;-66
2024/01/04 05:24:15;;;;;;;0.97;0.97;;;;;;;2.33;100.00;98765.16;5096098;28;20705;-65
2024/01/04 05:26:41;;;;;;;0.70;0.70;;;;;;;2.27;100.00;98774.47;5110940;28;20284;-65
2024/01/04 05:29:09;;;;;;;2.07;1.97;;;;;;;2.27;100.00;98779.53;5102524;28;20199;-65
2024/01/04 05:31:37;;;;;;;1.20;1.20;;;;;;;2.26;100.00;98772.81;5092300;28;20713;-65
2024/01/04 05:34:05;;;;;;;1.90;1.90;;;;;;;2.36;100.00;98785.34;5111924;28;20663;-65
2024/01/04 05:36:31;;;;;;;0.87;0.87;;;;;;;2.41;100.00;98780.28;5097524;28;20203;-65
2024/01/04 05:38:58;;;;;;;1.00;1.00;;;;;;;2.37;100.00;98786.19;5097362;28;20219;-65
2024/01/04 05:41:25;;;;;;;1.20;1.20;;;;;;;2.29;100.00;98782.91;5098527;28;20194;-66
2024/01/04 05:43:52;;;;;;;1.63;1.63;;;;;;;2.30;100.00;98779.50;5095757;28;20211;-65
2024/01/04 05:46:19;;;;;;;1.10;1.10;;;;;;;2.29;100.00;98782.91;5091013;28;20575;-65
2024/01/04 05:48:47;;;;;;;2.47;2.47;;;;;;;2.25;100.00;98776.19;5108153;28;20686;-65
2024/01/04 05:51:13;;;;;;;1.17;1.17;;;;;;;2.28;100.00;98791.31;5091189;28;20253;-65
2024/01/04 05:53:40;;;;;;;1.10;1.10;;;;;;;2.25;100.00;98796.41;5090525;28;20208;-65
2024/01/04 05:56:07;;;;;;;1.00;1.00;;;;;;;2.22;100.00;98799.81;5097708;28;20663;-65
2024/01/04 05:58:34;;;;;;;1.53;1.53;;;;;;;2.22;100.00;98801.47;5091572;28;20199;-65
2024/01/04 06:01:00;;;;;;;0.70;0.70;;;;;;;2.22;100.00;98806.53;5090715;28;20324;-65
2024/01/04 06:03:27;;;;;;;0.80;0.80;;;;;;;2.28;100.00;98788.78;5090865;28;20679;-65
2024/01/04 06:05:55;;;;;;;1.10;1.10;;;;;;;2.26;100.00;98795.56;5090826;28;20195;-65
2024/01/04 06:08:22;;;;;;;1.60;1.53;;;;;;;2.22;100.00;98796.44;5103445;28;20195;-65
2024/01/04 06:10:49;;;;;;;1.00;1.00;;;;;;;2.25;100.00;98787.13;5111091;28;20203;-65
2024/01/04 06:13:15;;;;;;;2.10;2.00;;;;;;;2.24;100.00;98787.13;5092232;28;20195;-65
2024/01/04 06:15:43;;;;;;;1.07;1.07;;;;;;;2.27;100.00;98794.69;5097994;28;20670;-65
2024/01/04 06:18:10;;;;;;;1.47;1.47;;;;;;;2.21;100.00;98790.53;5104234;28;20620;-65
2024/01/04 06:20:38;;;;;;;5.70;1.23;;;;;;;2.17;100.00;98791.38;5099230;28;20663;-64
2024/01/04 06:23:06;;;;;;;1.10;1.10;;;;;;;2.24;100.00;98782.06;5095838;28;20340;-62
2024/01/04 06:25:33;;;;;;;3.90;3.77;;;;;;;2.32;100.00;98778.66;5089865;28;20191;-62
2024/01/04 06:27:59;;;;;;;1.20;1.20;;;;;;;2.37;100.00;98779.44;5102166;28;20256;-62
2024/01/04 06:30:26;;;;;;;2.63;2.50;;;;;;;2.40;100.00;98778.59;5104657;28;20738;-62
2024/01/04 06:32:53;;;;;;;1.00;1.00;;;;;;;2.42;100.00;98790.41;5095031;28;20195;-62
2024/01/04 06:35:20;;;;;;;4.23;2.57;;;;;;;2.46;100.00;98793.72;5105419;28;20255;-62
2024/01/04 06:37:47;;;;;;;3.50;3.20;;;;;;;2.47;100.00;98792.88;5089778;28;20253;-67
2024/01/04 06:40:16;;;;;;;1.23;1.23;;;;;;;2.53;100.00;98783.53;5100320;28;20414;-67
2024/01/04 06:42:44;;;;;;;2.97;2.57;;;;;;;2.58;100.00;98784.38;5089797;28;20310;-67
2024/01/04 06:45:11;;;;;;;1.40;1.40;;;;;;;2.60;100.00;98784.34;5096383;28;20198;-67
2024/01/04 06:47:38;;;;;;;1.40;1.40;;;;;;;2.61;100.00;98770.84;5091869;28;20275;-67
2024/01/04 06:50:06;;;;;;;1.37;1.37;;;;;;;2.65;100.00;98778.38;5089922;28;20203;-68
2024/01/04 06:52:32;;;;;;;2.23;2.03;;;;;;;2.59;100.00;98777.59;5092266;28;20252;-67
2024/01/04 06:54:59;;;;;;;2.20;2.20;;;;;;;2.74;100.00;98792.66;5094967;28;20208;-67
2024/01/04 06:57:27;;;;;;;1.20;1.20;;;;;;;2.77;100.00;98806.97;5086660;28;20248;-67
2024/01/04 06:59:54;;;;;;;1.93;1.93;;;;;;;2.75;100.00;98806.97;5090045;28;20284;-67
2024/01/04 07:02:21;;;;;;;1.57;1.43;;;;;;;2.64;100.00;98816.34;5088805;28;20297;-67
2024/01/04 07:04:47;;;;;;;1.33;1.33;;;;;;;2.58;100.00;98812.19;5088989;28;20293;-67
2024/01/04 07:07:14;;;;;;;0.87;0.87;;;;;;;2.63;100.00;98802.84;5092683;28;20674;-67
2024/01/04 07:09:41;;;;;;;1.83;1.83;;;;;;;2.67;100.00;98801.16;5096538;28;20648;-68
2024/01/04 07:12:08;;;;;;;1.97;1.97;;;;;;;2.71;100.00;98802.81;5087953;28;20211;-68
2024/01/04 07:14:38;;;;;;;1.33;1.33;;;;;;;2.76;100.00;98785.88;5088117;28;20667;-67
2024/01/04 07:17:07;;;;;;;1.10;1.00;;;;;;;2.83;100.00;98797.63;5092999;28;20297;-67
2024/01/04 07:19:33;;;;;;;0.90;0.90;;;;;;;2.89;100.00;98792.50;5088340;28;20211;-67
2024/01/04 07:22:00;;;;;;;0.73;0.73;;;;;;;2.84;100.00;98774.00;5093773;28;20252;-68
2024/01/04 07:24:27;;;;;;;0.90;0.90;;;;;;;2.89;100.00;98776.47;5094364;28;20314;-67
2024/01/04 07:26:53;;;;;;;0.80;0.80;;;;;;;2.94;100.00;98773.03;5091547;28;20260;-67
2024/01/04 07:29:20;;;;;;;1.20;1.10;;;;;;;2.99;100.00;98748.53;5091101;28;20203;-67
2024/01/04 07:31:48;;;;;;;1.20;1.20;;;;;;;3.14;100.00;98742.47;5093670;28;20253;-68
2024/01/04 07:34:15;;;;;;;1.27;1.27;;;;;;;3.26;100.00;98746.56;5089489;28;20192;-67
2024/01/04 07:36:42;;;;;;;1.50;1.50;;;;;;;3.35;100.00;98751.53;5091795;28;20208;-67
2024/01/04 07:39:08;;;;;;;3.13;2.93;;;;;;;3.44;100.00;98744.66;5094644;28;20718;-67
2024/01/04 07:41:35;;;;;;;2.07;2.07;;;;;;;3.60;100.00;98747.81;5091314;28;20261;-66
2024/01/04 07:44:02;;;;;;;3.33;3.13;;;;;;;3.72;100.00;98749.38;5091279;28;20219;-66
2024/01/04 07:46:30;;;;;;;6.93;6.37;;;;;;;3.83;100.00;98740.75;5089180;28;20207;-67
2024/01/04 07:48:58;;;;;;;5.03;4.73;;;;;;;3.99;100.00;98732.06;5097053;28;20743;-67
2024/01/04 07:51:25;;;;;;;2.90;2.80;;;;;;;4.11;100.00;98741.19;5097559;28;20199;-67
2024/01/04 07:53:52;;;;;;;6.27;5.77;;;;;;;4.24;100.00;98733.38;5100649;28;20252;-67
2024/01/04 07:56:18;;;;;;;1.83;1.83;;;;;;;4.36;100.00;98726.44;5098498;28;20200;-67
2024/01/04 07:58:45;;;;;;;1.43;1.43;;;;;;;4.50;100.00;98719.44;5101834;28;20248;-67
2024/01/04 08:01:13;;;;;;;0.87;0.87;;;;;;;4.67;100.00;98717.44;5099479;28;20252;-67
2024/01/04 08:03:39;;;;;;;0.83;0.83;;;;;;;4.78;100.00;98732.50;5093994;28;20714;-67
2024/01/04 08:06:07;;;;;;;0.97;0.97;;;;;;;4.85;100.00;98732.34;5095709;28;20252;-67
2024/01/04 08:08:35;;;;;;;0.77;0.77;;;;;;;4.93;100.00;98732.22;5103786;28;20244;-68
2024/01/04 08:11:02;;;;;;;1.00;1.00;;;;;;;5.05;100.00;98735.38;5094385;28;20203;-67
2024/01/04 08:13:29;;;;;;;0.70;0.70;;;;;;;5.19;100.00;98720.72;5091554;28;20192;-67
2024/01/04 08:15:56;;;;;;;0.80;0.80;;;;;;;5.36;100.00;98724.63;5092074;28;20256;-67
2024/01/04 08:18:23;;;;;;;1.50;1.50;;;;;;;5.54;100.00;98745.41;5095698;28;20200;-68
2024/01/04 08:20:49;;;;;;;1.03;1.03;;;;;;;5.70;100.00;98735.75;5097457;28;20256;-68
2024/01/04 08:23:18;;;;;;;1.83;1.83;;;;;;;5.90;100.00;98743.84;5101779;28;20646;-68
2024/01/04 08:25:44;;;;;;;1.23;1.23;;;;;;;6.03;100.00;98734.22;5096221;28;20249;-67
2024/01/04 08:28:13;;;;;;;2.07;1.77;;;;;;;6.08;100.00;98717.97;5102085;28;20213;-67
2024/01/04 08:30:39;;;;;;;3.40;1.77;;;;;;;6.29;100.00;98726.81;5098209;28;20721;-67
2024/01/04 08:33:06;;;;;;;5.70;1.37;;;;;;;6.41;100.00;98720.59;5098843;28;20299;-68
2024/01/04 08:35:33;;;;;;;2.60;2.50;;;;;;;6.58;100.00;98714.22;5093049;28;20207;-68
2024/01/04 08:38:00;;;;;;;3.87;3.43;;;;;;;6.78;100.00;98716.25;5092278;28;20669;-67
2024/01/04 08:40:28;;;;;;;3.77;3.50;;;;;;;6.92;100.00;98701.44;5096824;28;20775;-67
2024/01/04 08:42:56;;;;;;;7.17;5.67;;;;;;;7.02;100.00;98692.66;5093822;28;20207;-68
2024/01/04 08:45:23;;;;;;;4.47;3.53;;;;;;;7.15;100.00;98686.34;5095527;28;20745;-68
2024/01/04 08:47:50;;;;;;;2.37;2.17;;;;;;;7.28;100.00;98687.69;5098848;28;20848;-68
2024/01/04 08:50:16;;;;;;;2.27;2.17;;;;;;;7.42;100.00;98684.75;5101389;28;20199;-67
2024/01/04 08:52:43;;;;;;;2.17;2.10;;;;;;;7.51;100.00;98679.38;5097799;28;20260;-68
2024/01/04 08:55:10;;;;;;;9.80;4.73;;;;;;;7.58;100.00;98670.69;5094279;28;20195;-68
2024/01/04 08:57:38;;;;;;;4.57;2.57;;;;;;;7.74;100.00;98673.59;5092043;28;20199;-69
2024/01/04 09:00:06;;;;;;;2.33;2.17;;;;;;;7.77;100.00;98676.06;5091216;28;20568;-68
2024/01/04 09:02:33;;;;;;;6.23;4.00;;;;;;;7.81;100.00;98687.84;5094638;28;20191;-68
2024/01/04 09:04:59;;;;;;;2.13;2.03;;;;;;;7.84;100.00;98685.19;5093110;28;20267;-68
2024/01/04 09:07:26;;;;;;;5.87;2.53;;;;;;;7.90;100.00;98690.09;5090947;28;20207;-68
2024/01/04 09:09:53;;;;;;;2.47;2.37;;;;;;;7.95;100.00;98703.53;5090809;28;20747;-68
2024/01/04 09:12:20;;;;;;;3.73;3.33;;;;;;;7.99;100.00;98707.69;5094897;28;20671;-68
2024/01/04 09:14:48;;;;;;;3.80;2.97;;;;;;;7.96;100.00;98707.78;5099990;28;20207;-68
2024/01/04 09:17:15;;;;;;;2.53;2.30;;;;;;;8.04;100.00;98718.59;5094812;28;20248;-68
2024/01/04 09:19:42;;;;;;;4.10;3.07;;;;;;;8.07;100.00;98721.06;5086125;28;20675;-68
2024/01/04 09:22:09;;;;;;;9.07;3.13;;;;;;;8.06;100.00;98719.38;5096833;28;20248;-68
2024/01/04 09:24:36;;;;;;;2.77;2.57;;;;;;;8.10;100.00;98697.16;5094241;28;20699;-68
2024/01/04 09:27:03;;;;;;;2.57;2.47;;;;;;;8.12;100.00;98691.09;5095684;28;20203;-68
2024/01/04 09:29:30;;;;;;;1.83;1.73;;;;;;;8.13;100.00;98687.69;5093081;28;20664;-68
2024/01/04 09:32:00;;;;;;;2.87;1.77;;;;;;;8.18;100.00;98688.34;5092354;28;20679;-68
2024/01/04 09:34:27;;;;;;;1.33;1.30;;;;;;;8.21;100.00;98683.16;5102594;28;20205;-68
2024/01/04 09:36:55;;;;;;;2.93;2.83;;;;;;;8.21;100.00;98677.19;5091690;28;20643;-68
2024/01/04 09:39:21;;;;;;;3.40;2.67;;;;;;;8.24;100.00;98667.72;5091015;28;20250;-68
2024/01/04 09:41:49;;;;;;;1.70;1.60;;;;;;;8.29;100.00;98655.69;5093914;28;20211;-68
2024/01/04 09:44:16;;;;;;;2.43;2.20;;;;;;;8.20;100.00;98655.97;5095212;28;20238;-68
2024/01/04 09:46:43;;;;;;;1.63;1.60;;;;;;;8.27;100.00;98646.41;5091948;28;20618;-69
2024/01/04 09:49:13;;;;;;;1.87;1.77;;;;;;;8.34;100.00;98635.94;5097929;28;20618;-67
2024/01/04 09:51:41;;;;;;;1.73;1.73;;;;;;;8.40;100.00;98628.06;5096665;27;20287;-68
2024/01/04 09:54:09;;;;;;;3.03;2.83;;;;;;;8.43;100.00;98622.03;5092085;28;20663;-68
2024/01/04 09:56:39;;;;;;;5.67;4.60;;;;;;;8.48;100.00;98626.97;5095694;28;20242;-68
2024/01/04 09:59:07;;;;;;;3.80;3.60;;;;;;;8.55;100.00;98623.34;5100670;28;20209;-68
2024/01/04 10:01:35;;;;;;;2.23;2.07;;;;;;;8.63;100.00;98613.66;5096778;28;20213;-68
2024/01/04 10:04:07;;;;;;;3.17;2.97;;;;;;;8.66;100.00;98608.47;5093651;28;20219;-68
2024/01/04 10:06:37;;;;;;;2.30;2.20;;;;;;;8.57;100.00;98588.34;5090969;28;20643;-68
2024/01/04 10:09:15;;;;;;;3.27;2.17;;;;;;;8.69;100.00;98605.81;5094101;28;20290;-68
2024/01/04 10:11:48;;;;;;;2.50;2.40;;;;;;;8.71;100.00;98606.59;5096981;28;20233;-68
2024/01/04 10:14:15;;;;;;;2.53;2.10;;;;;;;8.74;100.00;98596.25;5095736;28;20260;-68
2024/01/04 10:16:43;;;;;;;2.93;2.73;;;;;;;8.76;100.00;98589.34;5093837;28;20564;-68
2024/01/04 10:19:10;;;;;;;1.70;1.60;;;;;;;8.80;100.00;98585.81;5090423;28;20619;-68
2024/01/04 10:21:38;;;;;;;1.77;1.67;;;;;;;8.84;100.00;98561.81;5092597;28;20199;-68
2024/01/04 10:24:06;;;;;;;2.97;2.87;;;;;;;8.81;100.00;98572.16;5091160;28;20219;-68
2024/01/04 10:26:33;;;;;;;1.60;1.60;;;;;;;8.69;100.00;98532.53;5093634;28;20235;-68
2024/01/04 10:29:00;;;;;;;2.33;2.13;;;;;;;8.93;100.00;98566.59;5100805;28;20623;-68
2024/01/04 10:31:27;;;;;;;1.67;1.67;;;;;;;8.98;100.00;98560.41;5094559;28;20199;-68
2024/01/04 10:33:57;;;;;;;4.80;1.90;;;;;;;9.05;100.00;98552.53;5093798;28;20199;-68
2024/01/04 10:36:28;;;;;;;2.43;2.33;;;;;;;9.13;100.00;98548.78;5099063;28;20229;-68
2024/01/04 10:38:58;;;;;;;2.33;1.93;;;;;;;9.19;100.00;98533.22;5091460;28;20231;-68
2024/01/04 10:41:25;;;;;;;1.53;1.53;;;;;;;9.23;100.00;98529.66;5093806;28;20195;-68
2024/01/04 10:43:51;;;;;;;1.80;1.70;;;;;;;9.23;100.00;98524.53;5088902;28;20230;-68
2024/01/04 10:46:18;;;;;;;3.50;2.37;;;;;;;9.32;100.00;98519.06;5090379;28;20199;-68
2024/01/04 10:48:46;;;;;;;4.70;2.07;;;;;;;9.36;100.00;98519.78;5091373;28;20249;-68
2024/01/04 10:51:15;;;;;;;8.73;1.83;;;;;;;9.35;100.00;98524.06;5090026;28;20195;-68
2024/01/04 10:53:43;;;;;;;2.10;1.67;;;;;;;9.45;100.00;98520.25;5088593;28;20202;-69
2024/01/04 10:56:12;;;;;;;1.70;1.40;;;;;;;9.47;100.00;98512.50;5089822;28;20257;-68
2024/01/04 10:58:40;;;;;;;3.25;2.95;;;;;;;9.63;100.00;98512.75;5088333;28;20447;-65
2024/01/04 11:01:07;;;;;;;11.50;2.67;;;;;;;9.69;100.00;98492.03;5096063;28;20218;-65
2024/01/04 11:03:34;;;;;;;6.03;2.80;;;;;;;9.85;100.00;98509.25;5104625;28;20203;-66
2024/01/04 11:06:02;;;;;;;1.80;1.73;;;;;;;9.88;100.00;98510.84;5088286;28;20223;-65
2024/01/04 11:08:30;;;;;;;1.10;1.10;;;;;;;9.80;100.00;98510.31;5097130;28;20276;-65
2024/01/04 11:10:59;;;;;;;0.97;0.97;;;;;;;9.83;100.00;98510.19;5097140;28;20195;-65
2024/01/04 11:13:28;;;;;;;1.10;1.10;;;;;;;9.86;100.00;98499.81;5095843;28;20206;-66
2024/01/04 11:15:59;;;;;;;0.80;0.80;;;;;;;9.82;100.00;98488.88;5099961;28;20234;-65
2024/01/04 11:18:49;;;;;;;2.47;1.30;;;;;;;9.87;100.00;98486.13;5092719;28;20202;-65
2024/01/04 11:21:34;;;;;;;1.47;1.40;;;;;;;9.97;100.00;98479.72;5094487;28;20207;-65
2024/01/04 11:24:05;;;;;;;2.13;2.03;;;;;;;10.08;100.00;98484.41;5096885;28;20268;-65
2024/01/04 11:26:40;;;;;;;1.30;1.30;;;;;;;10.10;100.00;98493.69;5101149;28;20206;-65
2024/01/04 11:29:10;;;;;;;1.67;1.60;;;;;;;10.22;100.00;98482.94;5098799;28;20563;-65
2024/01/04 11:31:42;;;;;;;1.70;1.60;;;;;;;10.27;100.00;98469.94;5102539;28;20234;-65
2024/01/04 11:34:10;;;;;;;2.40;0.93;;;;;;;10.35;100.00;98463.56;5096236;28;20274;-64